createdAt,value
2019-04-23T00:00:37.781Z,5.28
2019-04-23T00:01:16.543Z,6.25
2019-04-23T00:02:05.334Z,6.37
2019-04-23T00:03:06.941Z,6.40
2019-04-23T00:03:35.731Z,6.75
2019-04-23T00:04:05.707Z,5.40
2019-04-23T00:04:45.561Z,6.65
2019-04-23T00:05:29.077Z,5.80
2019-04-23T00:05:59.473Z,6.22
2019-04-23T00:06:42.932Z,6.22
2019-04-23T00:07:22.651Z,5.97
2019-04-23T00:07:51.947Z,6.00
2019-04-23T00:08:29.153Z,5.78
2019-04-23T00:08:58.052Z,5.95
2019-04-23T00:09:32.895Z,6.70
2019-04-23T00:10:12.098Z,6.20
2019-04-23T00:10:45.913Z,6.33
2019-04-23T00:11:19.428Z,7.15
2019-04-23T00:11:54.267Z,7.00
2019-04-23T00:13:05.751Z,6.33
2019-04-23T00:15:04.866Z,5.70
2019-04-23T00:15:58.619Z,6.97
2019-04-23T00:16:35.971Z,6.47
2019-04-23T00:17:04.574Z,6.10
2019-04-23T00:17:43.758Z,5.47
2019-04-23T00:18:22.744Z,5.70
2019-04-23T00:19:03.188Z,5.70
2019-04-23T00:19:30.980Z,6.33
2019-04-23T00:20:09.582Z,6.12
2019-04-23T00:20:44.259Z,6.40
2019-04-23T00:22:26.521Z,6.20
2019-04-23T00:23:11.528Z,6.05
2019-04-23T00:23:53.340Z,5.60
2019-04-23T00:25:45.619Z,6.15
2019-04-23T00:26:22.180Z,6.05
2019-04-23T00:26:50.459Z,5.92
2019-04-23T00:27:29.273Z,6.05
2019-04-23T00:28:06.575Z,6.72
2019-04-23T00:29:21.161Z,6.03
2019-04-23T00:29:53.800Z,6.05
2019-04-23T00:30:32.085Z,5.85
2019-04-23T00:31:11.870Z,6.22
2019-04-23T00:31:36.234Z,6.28
2019-04-23T00:32:15.668Z,5.67
2019-04-23T00:32:46.935Z,5.72
2019-04-23T00:33:25.719Z,5.97
2019-04-23T00:34:06.339Z,5.35
2019-04-23T00:34:44.466Z,5.40
2019-04-23T00:35:12.354Z,6.12
2019-04-23T00:35:44.097Z,5.92
2019-04-23T00:36:42.262Z,5.20
2019-04-23T00:37:01.565Z,6.20
2019-04-23T00:37:36.912Z,6.00
2019-04-23T00:38:47.338Z,5.33
2019-04-23T00:39:23.668Z,6.33
2019-04-23T00:39:56.620Z,5.58
2019-04-23T00:40:41.775Z,5.37
2019-04-23T00:41:13.929Z,5.53
2019-04-23T00:42:10.374Z,5.92
2019-04-23T00:42:31.282Z,5.95
2019-04-23T00:43:03.447Z,5.60
2019-04-23T00:43:40.992Z,6.17
2019-04-23T00:44:15.060Z,5.78
2019-04-23T00:45:24.610Z,6.40
2019-04-23T00:45:55.098Z,6.22
2019-04-23T00:46:34.951Z,5.33
2019-04-23T00:47:10.326Z,5.47
2019-04-23T00:49:05.843Z,5.67
2019-04-23T00:49:39.913Z,5.85
2019-04-23T00:50:54.261Z,5.30
2019-04-23T00:51:34.675Z,5.92
2019-04-23T00:52:07.527Z,5.87
2019-04-23T00:52:40.749Z,5.28
2019-04-23T00:53:51.309Z,5.37
2019-04-23T00:54:27.380Z,5.67
2019-04-23T00:55:44.435Z,5.12
2019-04-23T00:56:32.107Z,5.05
2019-04-23T00:56:55.332Z,6.08
2019-04-23T00:57:34.371Z,5.90
2019-04-23T00:58:08.614Z,5.50
2019-04-23T00:58:41.262Z,5.30
2019-04-23T00:59:12.565Z,6.08
2019-04-23T01:00:02.046Z,6.60
2019-04-23T01:00:33.641Z,5.25
2019-04-23T01:01:04.417Z,5.12
2019-04-23T01:02:39.676Z,5.70
2019-04-23T01:03:12.577Z,5.78
2019-04-23T01:03:50.165Z,5.25
2019-04-23T01:04:29.518Z,5.10
2019-04-23T01:05:04.807Z,4.90
2019-04-23T01:05:39.239Z,4.22
2019-04-23T01:06:15.991Z,5.47
2019-04-23T01:06:53.834Z,5.12
2019-04-23T01:07:29.722Z,5.50
2019-04-23T01:08:01.869Z,4.50
2019-04-23T01:08:52.217Z,5.62
2019-04-23T01:09:11.219Z,5.78
2019-04-23T01:09:52.525Z,5.53
2019-04-23T01:10:34.561Z,5.35
2019-04-23T01:11:16.695Z,5.55
2019-04-23T01:11:48.129Z,5.15
2019-04-23T01:12:31.441Z,5.50
2019-04-23T01:14:13.234Z,6.00
2019-04-23T01:14:49.424Z,5.75
2019-04-23T01:15:33.994Z,6.05
2019-04-23T01:16:05.752Z,6.30
2019-04-23T01:16:37.948Z,5.12
2019-04-23T01:17:26.426Z,5.55
2019-04-23T01:18:02.298Z,5.70
2019-04-23T01:18:46.829Z,5.50
2019-04-23T01:20:08.454Z,5.75
2019-04-23T01:20:55.124Z,6.37
2019-04-23T01:21:11.697Z,5.75
2019-04-23T01:21:49.433Z,5.40
2019-04-23T01:22:27.433Z,5.00
2019-04-23T01:23:20.639Z,5.85
2019-04-23T01:24:17.258Z,5.85
2019-04-23T01:25:07.353Z,6.85
2019-04-23T01:25:47.430Z,6.28
2019-04-23T01:26:31.329Z,5.85
2019-04-23T01:27:52.754Z,5.40
2019-04-23T01:28:22.838Z,5.83
2019-04-23T01:28:55.900Z,5.80
2019-04-23T01:29:38.860Z,6.67
2019-04-23T01:30:09.536Z,6.28
2019-04-23T01:30:52.083Z,6.08
2019-04-23T01:31:20.205Z,6.30
2019-04-23T01:32:02.919Z,6.25
2019-04-23T01:32:35.037Z,5.97
2019-04-23T01:33:10.520Z,5.80
2019-04-23T01:33:46.708Z,6.37
2019-04-23T01:34:26.072Z,5.53
2019-04-23T01:35:07.293Z,5.80
2019-04-23T01:35:25.490Z,6.35
2019-04-23T01:36:42.962Z,5.78
2019-04-23T01:37:24.067Z,6.62
2019-04-23T01:37:51.565Z,6.05
2019-04-23T01:39:11.661Z,6.47
2019-04-23T01:39:50.953Z,5.22
2019-04-23T01:40:28.896Z,5.92
2019-04-23T01:40:53.721Z,5.10
2019-04-23T01:41:33.594Z,4.80
2019-04-23T01:42:19.579Z,5.95
2019-04-23T01:42:44.244Z,6.25
2019-04-23T01:43:23.207Z,6.45
2019-04-23T01:43:50.371Z,5.50
2019-04-23T01:44:38.560Z,5.92
2019-04-23T01:45:13.304Z,5.90
2019-04-23T01:45:35.577Z,6.25
2019-04-23T01:46:25.403Z,5.20
2019-04-23T01:47:00.779Z,6.25
2019-04-23T01:47:39.301Z,5.17
2019-04-23T01:48:05.937Z,5.50
2019-04-23T01:48:47.100Z,5.15
2019-04-23T01:49:21.898Z,5.95
2019-04-23T01:50:01.871Z,6.28
2019-04-23T01:50:43.772Z,5.65
2019-04-23T01:51:08.173Z,6.00
2019-04-23T01:51:54.535Z,6.05
2019-04-23T01:52:31.964Z,5.83
2019-04-23T01:53:08.101Z,6.55
2019-04-23T01:53:41.697Z,6.12
2019-04-23T01:54:09.433Z,6.22
2019-04-23T01:54:52.857Z,6.28
2019-04-23T01:55:31.544Z,5.65
2019-04-23T01:56:20.347Z,5.78
2019-04-23T01:56:33.716Z,5.55
2019-04-23T01:57:16.753Z,6.60
2019-04-23T01:57:56.330Z,5.75
2019-04-23T01:59:07.883Z,4.92
2019-04-23T01:59:39.284Z,5.62
2019-04-23T02:00:22.761Z,5.60
2019-04-23T02:00:53.135Z,6.15
2019-04-23T02:01:46.243Z,6.58
2019-04-23T02:02:05.131Z,6.05
2019-04-23T02:02:44.236Z,6.05
2019-04-23T02:03:15.208Z,5.60
2019-04-23T02:03:58.300Z,5.25
2019-04-23T02:04:28.666Z,5.67
2019-04-23T02:05:09.893Z,5.42
2019-04-23T02:05:41.534Z,5.78
2019-04-23T02:06:14.775Z,5.65
2019-04-23T02:06:55.924Z,5.80
2019-04-23T02:08:03.972Z,5.42
2019-04-23T02:08:45.266Z,5.97
2019-04-23T02:09:17.119Z,6.05
2019-04-23T02:09:58.645Z,5.15
2019-04-23T02:10:56.710Z,5.87
2019-04-23T02:11:37.740Z,5.47
2019-04-23T02:12:19.998Z,5.15
2019-04-23T02:12:56.950Z,6.37
2019-04-23T02:13:32.332Z,5.50
2019-04-23T02:14:43.328Z,4.85
2019-04-23T02:15:16.873Z,5.45
2019-04-23T02:15:51.754Z,5.53
2019-04-23T02:16:33.889Z,5.95
2019-04-23T02:17:01.211Z,5.20
2019-04-23T02:17:50.100Z,5.65
2019-04-23T02:18:17.878Z,5.42
2019-04-23T02:19:09.749Z,5.55
2019-04-23T02:19:34.284Z,6.12
2019-04-23T02:20:14.716Z,6.12
2019-04-23T02:20:46.135Z,5.40
2019-04-23T02:21:43.548Z,4.47
2019-04-23T02:22:10.266Z,6.28
2019-04-23T02:23:11.399Z,5.37
2019-04-23T02:23:39.655Z,6.25
2019-04-23T02:24:18.292Z,5.85
2019-04-23T02:25:15.784Z,5.83
2019-04-23T02:26:57.574Z,5.65
2019-04-23T02:27:42.638Z,5.35
2019-04-23T02:28:19.029Z,5.78
2019-04-23T02:29:41.564Z,5.50
2019-04-23T02:32:31.858Z,5.87
2019-04-23T02:33:46.100Z,5.85
2019-04-23T02:34:30.996Z,6.58
2019-04-23T02:35:42.751Z,6.75
2019-04-23T02:36:11.010Z,6.20
2019-04-23T02:36:48.834Z,5.95
2019-04-23T02:37:22.118Z,6.60
2019-04-23T02:38:00.302Z,6.22
2019-04-23T02:38:42.918Z,6.35
2019-04-23T02:39:21.823Z,6.30
2019-04-23T02:39:51.306Z,6.05
2019-04-23T02:40:30.684Z,5.87
2019-04-23T02:42:25.244Z,7.33
2019-04-23T02:43:01.768Z,6.47
2019-04-23T02:43:16.705Z,6.30
2019-04-23T02:44:09.110Z,6.25
2019-04-23T02:44:27.527Z,6.60
2019-04-23T02:46:02.488Z,6.72
2019-04-23T02:46:09.091Z,6.08
2019-04-23T02:47:32.607Z,7.67
2019-04-23T02:48:54.379Z,5.47
2019-04-23T02:50:12.045Z,6.70
2019-04-23T02:51:04.861Z,6.25
2019-04-23T02:51:51.014Z,6.33
2019-04-23T02:52:26.385Z,5.97
2019-04-23T02:53:02.565Z,6.35
2019-04-23T02:53:53.488Z,5.92
2019-04-23T02:54:17.826Z,6.60
2019-04-23T02:55:29.330Z,6.08
2019-04-23T02:56:05.743Z,5.70
2019-04-23T02:56:42.742Z,6.37
2019-04-23T02:57:09.378Z,6.65
2019-04-23T02:57:41.594Z,6.00
2019-04-23T02:58:28.167Z,6.03
2019-04-23T02:59:02.377Z,6.72
2019-04-23T03:00:07.862Z,6.72
2019-04-23T03:00:55.553Z,6.00
2019-04-23T03:01:39.720Z,6.75
2019-04-23T03:03:01.252Z,6.67
2019-04-23T03:03:38.923Z,6.12
2019-04-23T03:04:10.354Z,6.10
2019-04-23T03:04:45.121Z,6.47
2019-04-23T03:05:40.292Z,6.28
2019-04-23T03:05:57.352Z,6.00
2019-04-23T03:06:27.107Z,6.72
2019-04-23T03:08:24.507Z,6.78
2019-04-23T03:09:36.679Z,6.37
2019-04-23T03:10:08.117Z,6.45
2019-04-23T03:12:08.266Z,6.10
2019-04-23T03:12:41.495Z,6.92
2019-04-23T03:13:19.374Z,6.87
2019-04-23T03:14:25.023Z,6.45
2019-04-23T03:15:24.164Z,6.83
2019-04-23T03:17:31.008Z,6.12
2019-04-23T03:20:01.512Z,6.30
2019-04-23T03:21:01.784Z,5.97
2019-04-23T03:21:31.446Z,6.90
2019-04-23T03:22:06.069Z,6.42
2019-04-23T03:23:20.337Z,6.28
2019-04-23T03:24:40.487Z,6.72
2019-04-23T03:25:10.294Z,6.60
2019-04-23T03:25:49.672Z,6.10
2019-04-23T03:26:37.021Z,6.80
2019-04-23T03:27:37.581Z,5.90
2019-04-23T03:28:25.163Z,6.85
2019-04-23T03:29:31.722Z,6.37
2019-04-23T03:30:13.457Z,6.78
2019-04-23T03:31:57.885Z,5.83
2019-04-23T03:35:16.210Z,6.37
2019-04-23T03:38:00.765Z,6.17
2019-04-23T03:38:56.018Z,5.90
2019-04-23T03:40:13.296Z,5.95
2019-04-23T03:40:37.325Z,6.30
2019-04-23T03:41:44.028Z,6.17
2019-04-23T03:43:29.598Z,6.17
2019-04-23T03:44:06.683Z,6.10
2019-04-23T03:44:40.170Z,5.87
2019-04-23T03:45:22.297Z,6.28
2019-04-23T03:46:55.323Z,6.22
2019-04-23T03:47:34.888Z,6.08
2019-04-23T03:48:20.031Z,6.35
2019-04-23T03:48:47.269Z,6.20
2019-04-23T03:49:13.531Z,6.42
2019-04-23T03:50:09.228Z,5.90
2019-04-23T03:50:39.568Z,5.62
2019-04-23T03:51:06.863Z,6.15
2019-04-23T03:52:03.215Z,5.72
2019-04-23T03:53:22.598Z,6.15
2019-04-23T03:55:01.213Z,6.12
2019-04-23T03:55:30.208Z,6.30
2019-04-23T03:56:44.871Z,5.75
2019-04-23T03:57:45.021Z,6.20
2019-04-23T03:58:44.811Z,5.90
2019-04-23T04:00:15.728Z,6.80
2019-04-23T04:00:54.098Z,5.65
2019-04-23T04:03:24.134Z,5.28
2019-04-23T04:04:14.826Z,5.47
2019-04-23T04:04:33.320Z,5.25
2019-04-23T04:04:49.843Z,5.25
2019-04-23T04:05:36.085Z,5.87
2019-04-23T04:06:13.767Z,5.30
2019-04-23T04:06:50.163Z,6.17
2019-04-23T04:07:31.953Z,5.65
2019-04-23T04:08:25.744Z,6.22
2019-04-23T04:10:16.040Z,6.15
2019-04-23T04:11:07.814Z,6.05
2019-04-23T04:11:25.480Z,6.62
2019-04-23T04:12:19.100Z,5.12
2019-04-23T04:12:39.328Z,5.80
2019-04-23T04:14:10.274Z,6.47
2019-04-23T04:15:18.313Z,5.47
2019-04-23T04:15:55.344Z,5.62
2019-04-23T04:16:18.925Z,4.35
2019-04-23T04:17:01.329Z,4.95
2019-04-23T04:17:26.761Z,5.90
2019-04-23T04:18:28.505Z,5.40
2019-04-23T04:18:44.380Z,5.75
2019-04-23T04:19:32.521Z,5.22
2019-04-23T04:19:56.578Z,5.53
2019-04-23T04:21:51.989Z,5.22
2019-04-23T04:22:29.361Z,5.22
2019-04-23T04:23:33.921Z,5.25
2019-04-23T04:24:22.351Z,5.97
2019-04-23T04:25:02.434Z,4.60
2019-04-23T04:25:30.731Z,5.60
2019-04-23T04:25:56.615Z,5.75
2019-04-23T04:27:24.504Z,5.22
2019-04-23T04:27:53.887Z,5.40
2019-04-23T04:28:28.900Z,5.55
2019-04-23T04:29:10.807Z,6.33
2019-04-23T04:29:39.680Z,5.55
2019-04-23T04:30:54.523Z,6.15
2019-04-23T04:31:20.936Z,5.70
2019-04-23T04:32:00.487Z,5.12
2019-04-23T04:32:33.453Z,5.45
2019-04-23T04:36:07.924Z,5.20
2019-04-23T04:38:36.314Z,6.20
2019-04-23T04:38:58.970Z,5.12
2019-04-23T04:39:35.916Z,5.20
2019-04-23T04:40:10.855Z,5.40
2019-04-23T04:40:42.192Z,6.08
2019-04-23T04:42:27.558Z,5.15
2019-04-23T04:43:13.211Z,5.50
2019-04-23T04:45:42.351Z,4.97
2019-04-23T04:46:47.830Z,5.85
2019-04-23T04:47:21.514Z,5.67
2019-04-23T04:47:49.338Z,5.22
2019-04-23T04:48:35.387Z,5.58
2019-04-23T04:49:05.532Z,5.83
2019-04-23T04:49:51.727Z,5.95
2019-04-23T04:50:35.015Z,5.45
2019-04-23T04:51:00.239Z,5.42
2019-04-23T04:51:44.289Z,5.35
2019-04-23T04:52:34.605Z,5.80
2019-04-23T04:53:37.966Z,5.10
2019-04-23T04:54:02.632Z,5.35
2019-04-23T04:54:21.994Z,5.30
2019-04-23T04:55:03.206Z,5.28
2019-04-23T04:56:28.047Z,5.60
2019-04-23T04:57:04.583Z,5.55
2019-04-23T04:57:37.262Z,5.92
2019-04-23T04:58:07.158Z,6.05
2019-04-23T04:58:49.669Z,5.55
2019-04-23T04:59:18.165Z,5.65
2019-04-23T05:00:08.314Z,5.55
2019-04-23T05:01:36.792Z,6.08
2019-04-23T05:02:26.427Z,6.37
2019-04-23T05:04:16.517Z,6.00
2019-04-23T05:04:52.374Z,5.70
2019-04-23T05:06:18.559Z,5.22
2019-04-23T05:06:37.978Z,5.60
2019-04-23T05:07:09.084Z,6.10
2019-04-23T05:08:21.695Z,5.75
2019-04-23T05:11:28.817Z,5.22
2019-04-23T05:12:32.490Z,5.47
2019-04-23T05:13:22.722Z,5.45
2019-04-23T05:14:30.815Z,5.37
2019-04-23T05:15:28.503Z,5.20
2019-04-23T05:16:08.038Z,5.30
2019-04-23T05:16:47.373Z,5.45
2019-04-23T05:18:28.798Z,5.80
2019-04-23T05:19:25.122Z,4.87
2019-04-23T05:19:51.295Z,4.75
2019-04-23T05:20:28.509Z,4.80
2019-04-23T05:22:16.062Z,5.28
2019-04-23T05:22:59.448Z,4.90
2019-04-23T05:23:45.858Z,4.95
2019-04-23T05:24:23.464Z,5.00
2019-04-23T05:24:51.427Z,4.92
2019-04-23T05:25:34.013Z,5.62
2019-04-23T05:26:21.083Z,5.17
2019-04-23T05:26:48.212Z,5.37
2019-04-23T05:27:34.546Z,5.25
2019-04-23T05:28:08.045Z,5.47
2019-04-23T05:28:49.195Z,5.00
2019-04-23T05:29:11.198Z,4.50
2019-04-23T05:29:54.318Z,4.70
2019-04-23T05:30:33.161Z,4.97
2019-04-23T05:31:09.818Z,6.22
2019-04-23T05:31:32.508Z,5.05
2019-04-23T05:32:19.362Z,4.95
2019-04-23T05:32:56.439Z,4.33
2019-04-23T05:33:29.785Z,5.35
2019-04-23T05:34:04.556Z,4.75
2019-04-23T05:34:45.147Z,5.10
2019-04-23T05:35:28.643Z,5.87
2019-04-23T05:36:12.618Z,5.25
2019-04-23T05:36:30.734Z,5.03
2019-04-23T05:37:07.108Z,5.20
2019-04-23T05:37:50.358Z,6.28
2019-04-23T05:38:31.477Z,5.62
2019-04-23T05:39:02.459Z,5.47
2019-04-23T05:40:22.077Z,6.40
2019-04-23T05:40:44.972Z,6.42
2019-04-23T05:41:27.039Z,5.05
2019-04-23T05:41:53.611Z,4.72
2019-04-23T05:42:36.335Z,5.20
2019-04-23T05:43:03.387Z,5.17
2019-04-23T05:44:21.608Z,5.05
2019-04-23T05:44:57.138Z,5.45
2019-04-23T05:46:17.947Z,4.70
2019-04-23T05:47:20.354Z,5.00
2019-04-23T05:47:58.635Z,5.35
2019-04-23T05:48:32.215Z,4.87
2019-04-23T05:49:47.172Z,5.08
2019-04-23T05:50:26.056Z,5.85
2019-04-23T05:51:36.320Z,5.08
2019-04-23T05:52:07.458Z,5.20
2019-04-23T05:52:47.893Z,5.97
2019-04-23T05:53:18.545Z,5.08
2019-04-23T05:54:00.483Z,5.60
2019-04-23T05:54:36.802Z,5.85
2019-04-23T05:55:09.129Z,5.75
2019-04-23T05:55:49.365Z,7.42
2019-04-23T05:56:22.632Z,5.83
2019-04-23T05:56:55.071Z,6.03
2019-04-23T05:57:34.864Z,5.33
2019-04-23T05:58:08.628Z,5.00
2019-04-23T05:58:48.944Z,5.45
2019-04-23T05:59:59.068Z,5.17
2019-04-23T06:00:39.554Z,5.45
2019-04-23T06:01:49.277Z,5.45
2019-04-23T06:02:07.598Z,5.33
2019-04-23T06:02:53.734Z,5.08
2019-04-23T06:03:22.339Z,5.65
2019-04-23T06:04:09.332Z,5.80
2019-04-23T06:05:10.389Z,5.25
2019-04-23T06:05:46.554Z,5.35
2019-04-23T06:06:29.735Z,5.78
2019-04-23T06:07:28.910Z,4.95
2019-04-23T06:07:35.881Z,5.37
2019-04-23T06:08:14.693Z,5.72
2019-04-23T06:08:56.441Z,4.80
2019-04-23T06:09:28.813Z,5.60
2019-04-23T06:10:44.290Z,5.40
2019-04-23T06:11:19.264Z,5.95
2019-04-23T06:11:58.208Z,6.33
2019-04-23T06:12:26.984Z,5.70
2019-04-23T06:13:04.934Z,5.90
2019-04-23T06:13:43.057Z,5.00
2019-04-23T06:14:21.256Z,5.70
2019-04-23T06:14:55.613Z,5.30
2019-04-23T06:15:32.406Z,5.75
2019-04-23T06:16:04.768Z,5.80
2019-04-23T06:16:41.185Z,6.00
2019-04-23T06:17:16.395Z,5.25
2019-04-23T06:17:54.220Z,5.33
2019-04-23T06:18:33.278Z,6.20
2019-04-23T06:19:09.732Z,5.55
2019-04-23T06:19:36.704Z,5.55
2019-04-23T06:20:15.133Z,5.30
2019-04-23T06:20:56.163Z,5.65
2019-04-23T06:21:33.939Z,5.30
2019-04-23T06:22:45.592Z,5.08
2019-04-23T06:23:24.725Z,5.70
2019-04-23T06:24:06.271Z,5.70
2019-04-23T06:24:34.683Z,5.85
2019-04-23T06:25:12.631Z,5.72
2019-04-23T06:26:10.099Z,6.17
2019-04-23T06:27:32.476Z,5.65
2019-04-23T06:28:08.135Z,5.58
2019-04-23T06:28:42.782Z,5.97
2019-04-23T06:29:57.109Z,5.17
2019-04-23T06:31:07.863Z,6.12
2019-04-23T06:32:19.030Z,5.65
2019-04-23T06:33:04.301Z,5.53
2019-04-23T06:33:32.383Z,5.78
2019-04-23T06:34:47.243Z,6.05
2019-04-23T06:35:27.063Z,5.90
2019-04-23T06:35:58.952Z,5.65
2019-04-23T06:36:32.692Z,5.65
2019-04-23T06:37:16.950Z,5.45
2019-04-23T06:38:22.015Z,6.40
2019-04-23T06:40:13.872Z,5.47
2019-04-23T06:40:47.450Z,5.67
2019-04-23T06:41:30.976Z,6.45
2019-04-23T06:42:04.228Z,5.33
2019-04-23T06:42:56.337Z,5.37
2019-04-23T06:43:56.682Z,4.92
2019-04-23T06:44:28.922Z,5.70
2019-04-23T06:44:59.650Z,5.90
2019-04-23T06:46:11.862Z,5.70
2019-04-23T06:47:31.116Z,4.72
2019-04-23T06:48:09.042Z,5.97
2019-04-23T06:49:20.133Z,5.72
2019-04-23T06:49:54.604Z,5.58
2019-04-23T06:50:27.131Z,5.37
2019-04-23T06:51:06.014Z,5.78
2019-04-23T06:51:46.697Z,5.10
2019-04-23T06:52:31.788Z,5.05
2019-04-23T06:52:50.576Z,5.67
2019-04-23T06:53:27.306Z,5.20
2019-04-23T06:54:06.823Z,4.90
2019-04-23T06:54:47.770Z,4.53
2019-04-23T06:55:20.378Z,5.72
2019-04-23T06:55:59.908Z,5.87
2019-04-23T06:56:35.099Z,5.25
2019-04-23T06:57:31.811Z,5.22
2019-04-23T06:58:24.062Z,5.17
2019-04-23T06:58:47.404Z,4.35
2019-04-23T06:59:47.128Z,5.67
2019-04-23T07:00:46.603Z,9.63
2019-04-23T07:01:25.605Z,7.20
2019-04-23T07:01:59.282Z,5.83
2019-04-23T07:02:34.275Z,5.70
2019-04-23T07:03:14.705Z,5.35
2019-04-23T07:03:55.667Z,5.62
2019-04-23T07:06:03.758Z,5.37
2019-04-23T07:06:30.003Z,4.72
2019-04-23T07:08:30.656Z,5.25
2019-04-23T07:09:35.461Z,4.78
2019-04-23T07:10:03.589Z,4.92
2019-04-23T07:10:54.396Z,5.15
2019-04-23T07:11:47.890Z,5.42
2019-04-23T07:12:35.126Z,5.00
2019-04-23T07:13:10.589Z,5.90
2019-04-23T07:14:12.020Z,5.00
2019-04-23T07:15:12.907Z,5.70
2019-04-23T07:15:42.923Z,5.35
2019-04-23T07:16:12.883Z,5.12
2019-04-23T07:16:58.521Z,6.15
2019-04-23T07:17:13.357Z,7.58
2019-04-23T07:17:55.521Z,11.18
2019-04-23T07:18:29.324Z,5.55
2019-04-23T07:19:19.910Z,5.35
2019-04-23T07:20:22.557Z,5.10
2019-04-23T07:20:59.954Z,6.65
2019-04-23T07:21:27.975Z,7.03
2019-04-23T07:22:14.716Z,5.75
2019-04-23T07:22:49.889Z,5.30
2019-04-23T07:23:29.969Z,5.05
2019-04-23T07:24:05.388Z,5.45
2019-04-23T07:24:28.719Z,5.12
2019-04-23T07:25:47.053Z,4.22
2019-04-23T07:26:30.481Z,4.15
2019-04-23T07:26:52.842Z,4.65
2019-04-23T07:27:31.762Z,4.05
2019-04-23T07:28:12.894Z,5.62
2019-04-23T07:28:53.155Z,4.50
2019-04-23T07:29:25.695Z,5.03
2019-04-23T07:30:03.578Z,4.78
2019-04-23T07:30:33.430Z,4.78
2019-04-23T07:31:28.077Z,5.15
2019-04-23T07:31:52.158Z,4.70
2019-04-23T07:32:40.798Z,4.60
2019-04-23T07:33:04.049Z,4.75
2019-04-23T07:33:49.538Z,5.45
2019-04-23T07:34:23.293Z,4.97
2019-04-23T07:34:55.309Z,5.10
2019-04-23T07:35:24.608Z,5.60
2019-04-23T07:36:03.133Z,5.50
2019-04-23T07:36:44.462Z,5.15
2019-04-23T07:37:15.612Z,5.03
2019-04-23T07:37:54.549Z,4.80
2019-04-23T07:38:43.326Z,4.42
2019-04-23T07:39:35.583Z,5.05
2019-04-23T07:40:23.085Z,7.03
2019-04-23T07:40:40.610Z,4.40
2019-04-23T07:41:47.942Z,4.75
2019-04-23T07:43:41.814Z,5.65
2019-04-23T07:46:06.512Z,4.90
2019-04-23T07:47:05.351Z,5.75
2019-04-23T07:48:00.238Z,4.00
2019-04-23T07:48:23.855Z,4.17
2019-04-23T07:49:06.739Z,5.35
2019-04-23T07:49:41.462Z,6.22
2019-04-23T07:50:23.158Z,8.75
2019-04-23T07:50:52.028Z,5.22
2019-04-23T07:51:29.863Z,4.60
2019-04-23T07:52:11.049Z,4.42
2019-04-23T07:52:41.087Z,4.70
2019-04-23T07:54:16.049Z,5.05
2019-04-23T07:54:29.022Z,4.42
2019-04-23T07:55:06.760Z,4.22
2019-04-23T07:56:21.446Z,5.00
2019-04-23T07:57:02.276Z,3.80
2019-04-23T07:57:38.166Z,3.70
2019-04-23T07:58:14.261Z,3.67
2019-04-23T07:58:33.594Z,4.12
2019-04-23T07:59:22.727Z,4.42
2019-04-23T07:59:55.658Z,4.60
2019-04-23T08:01:07.041Z,4.85
2019-04-23T08:01:42.257Z,5.20
2019-04-23T08:02:27.328Z,4.28
2019-04-23T08:02:58.246Z,3.98
2019-04-23T08:03:31.535Z,4.40
2019-04-23T08:04:08.533Z,4.85
2019-04-23T08:04:54.104Z,4.22
2019-04-23T08:05:36.077Z,4.65
2019-04-23T08:06:05.900Z,4.50
2019-04-23T08:06:30.101Z,3.67
2019-04-23T08:07:12.790Z,4.03
2019-04-23T08:07:44.089Z,3.58
2019-04-23T08:08:21.359Z,3.65
2019-04-23T08:08:56.494Z,3.27
2019-04-23T08:09:43.066Z,3.80
2019-04-23T08:11:24.480Z,3.90
2019-04-23T08:11:42.682Z,4.15
2019-04-23T08:12:55.823Z,3.77
2019-04-23T08:13:39.888Z,3.92
2019-04-23T08:14:03.578Z,3.58
2019-04-23T08:14:46.921Z,3.77
2019-04-23T08:15:23.186Z,3.52
2019-04-23T08:15:57.429Z,4.70
2019-04-23T08:16:33.630Z,4.55
2019-04-23T08:17:04.391Z,3.83
2019-04-23T08:17:42.706Z,3.22
2019-04-23T08:18:18.625Z,3.50
2019-04-23T08:18:58.965Z,3.75
2019-04-23T08:19:43.974Z,4.20
2019-04-23T08:20:07.365Z,3.58
2019-04-23T08:21:20.869Z,3.33
2019-04-23T08:22:10.004Z,3.37
2019-04-23T08:22:32.346Z,3.25
2019-04-23T08:23:17.801Z,3.83
2019-04-23T08:25:03.278Z,4.10
2019-04-23T08:26:00.475Z,3.02
2019-04-23T08:27:18.145Z,4.40
2019-04-23T08:28:06.168Z,3.52
2019-04-23T08:29:14.104Z,2.95
2019-04-23T08:29:45.857Z,2.85
2019-04-23T08:30:28.904Z,3.27
2019-04-23T08:31:07.859Z,2.95
2019-04-23T08:31:43.668Z,2.98
2019-04-23T08:32:15.021Z,2.75
2019-04-23T08:32:52.187Z,2.60
2019-04-23T08:33:44.705Z,3.00
2019-04-23T08:34:17.185Z,3.05
2019-04-23T08:34:43.292Z,2.95
2019-04-23T08:35:59.310Z,2.90
2019-04-23T08:36:38.944Z,3.30
2019-04-23T08:37:09.037Z,3.50
2019-04-23T08:37:54.424Z,2.83
2019-04-23T08:38:53.965Z,2.60
2019-04-23T08:39:32.303Z,3.65
2019-04-23T08:40:02.599Z,4.65
2019-04-23T08:40:43.933Z,4.70
2019-04-23T08:42:09.589Z,5.17
2019-04-23T08:42:39.687Z,3.02
2019-04-23T08:43:36.765Z,2.80
2019-04-23T08:44:01.138Z,5.37
2019-04-23T08:45:11.977Z,6.80
2019-04-23T08:45:44.422Z,3.02
2019-04-23T08:46:43.405Z,3.95
2019-04-23T08:47:29.755Z,3.70
2019-04-23T08:48:01.197Z,4.67
2019-04-23T08:48:49.649Z,3.30
2019-04-23T08:49:20.089Z,2.98
2019-04-23T08:50:26.328Z,3.60
2019-04-23T08:51:09.718Z,3.05
2019-04-23T08:51:49.562Z,2.90
2019-04-23T08:52:14.828Z,2.98
2019-04-23T08:52:43.163Z,3.52
2019-04-23T08:53:55.448Z,2.92
2019-04-23T08:54:48.083Z,3.10
2019-04-23T08:55:10.167Z,4.47
2019-04-23T08:56:20.696Z,3.60
2019-04-23T08:57:02.763Z,3.58
2019-04-23T08:57:32.436Z,4.60
2019-04-23T08:58:14.151Z,3.90
2019-04-23T08:58:46.236Z,3.58
2019-04-23T08:59:33.168Z,7.05
2019-04-23T08:59:55.651Z,7.00
2019-04-23T09:00:45.483Z,2.90
2019-04-23T09:02:07.733Z,3.25
2019-04-23T09:03:04.672Z,9.35
2019-04-23T09:03:34.532Z,8.60
2019-04-23T09:04:22.014Z,4.70
2019-04-23T09:04:54.915Z,6.53
2019-04-23T09:05:32.435Z,3.30
2019-04-23T09:06:06.148Z,4.15
2019-04-23T09:06:34.928Z,4.58
2019-04-23T09:07:33.632Z,4.15
2019-04-23T09:08:00.036Z,3.72
2019-04-23T09:08:27.766Z,4.20
2019-04-23T09:09:09.845Z,3.17
2019-04-23T09:09:43.869Z,3.80
2019-04-23T09:10:23.339Z,3.92
2019-04-23T09:10:56.876Z,4.10
2019-04-23T09:11:41.691Z,4.30
2019-04-23T09:12:46.003Z,3.50
2019-04-23T09:13:43.785Z,4.55
2019-04-23T09:13:55.751Z,5.20
2019-04-23T09:14:22.862Z,4.22
2019-04-23T09:15:07.804Z,3.67
2019-04-23T09:15:45.061Z,4.15
2019-04-23T09:16:17.911Z,4.47
2019-04-23T09:16:58.369Z,4.03
2019-04-23T09:17:47.620Z,4.35
2019-04-23T09:18:10.433Z,4.40
2019-04-23T09:18:37.233Z,5.65
2019-04-23T09:19:27.089Z,4.80
2019-04-23T09:20:18.960Z,4.75
2019-04-23T09:20:27.585Z,4.65
2019-04-23T09:21:07.366Z,4.25
2019-04-23T09:21:42.870Z,4.10
2019-04-23T09:22:34.743Z,3.62
2019-04-23T09:22:50.110Z,4.20
2019-04-23T09:23:46.963Z,4.37
2019-04-23T09:24:03.947Z,3.98
2019-04-23T09:25:56.202Z,4.28
2019-04-23T09:26:26.093Z,6.05
2019-04-23T09:27:16.204Z,6.53
2019-04-23T09:27:40.135Z,5.17
2019-04-23T09:28:27.641Z,5.22
2019-04-23T09:29:42.418Z,4.92
2019-04-23T09:30:07.127Z,4.00
2019-04-23T09:30:49.376Z,4.75
2019-04-23T09:32:30.201Z,4.70
2019-04-23T09:33:00.749Z,5.12
2019-04-23T09:33:47.139Z,4.78
2019-04-23T09:34:33.886Z,4.62
2019-04-23T09:36:13.619Z,5.03
2019-04-23T09:37:11.991Z,4.90
2019-04-23T09:38:01.811Z,4.78
2019-04-23T09:38:54.096Z,4.72
2019-04-23T09:39:52.866Z,4.47
2019-04-23T09:41:02.523Z,4.85
2019-04-23T09:41:31.156Z,4.22
2019-04-23T09:42:40.108Z,5.17
2019-04-23T09:43:12.200Z,5.83
2019-04-23T09:44:07.934Z,5.65
2019-04-23T09:44:58.536Z,4.28
2019-04-23T09:45:59.818Z,5.20
2019-04-23T09:46:37.773Z,5.50
2019-04-23T09:47:41.432Z,4.65
2019-04-23T09:48:04.655Z,4.45
2019-04-23T09:48:52.465Z,6.05
2019-04-23T09:49:27.552Z,7.00
2019-04-23T09:50:01.257Z,5.35
2019-04-23T09:50:38.380Z,4.25
2019-04-23T09:51:07.948Z,4.35
2019-04-23T09:51:51.366Z,5.15
2019-04-23T09:53:09.646Z,4.55
2019-04-23T09:53:33.937Z,4.20
2019-04-23T09:54:56.194Z,6.65
2019-04-23T09:55:32.446Z,4.83
2019-04-23T09:55:53.727Z,7.22
2019-04-23T09:57:14.027Z,9.15
2019-04-23T09:58:00.488Z,8.13
2019-04-23T09:58:22.440Z,8.90
2019-04-23T09:59:10.914Z,8.68
2019-04-23T10:00:22.999Z,10.32
2019-04-23T10:00:54.480Z,6.50
2019-04-23T10:02:01.235Z,7.42
2019-04-23T10:02:33.991Z,6.25
2019-04-23T10:03:09.143Z,7.35
2019-04-23T10:03:50.503Z,8.28
2019-04-23T10:04:23.218Z,6.58
2019-04-23T10:05:01.224Z,8.10
2019-04-23T10:05:33.636Z,6.58
2019-04-23T10:06:08.198Z,4.42
2019-04-23T10:06:39.188Z,7.42
2019-04-23T10:07:27.056Z,5.20
2019-04-23T10:07:58.634Z,4.50
2019-04-23T10:08:32.174Z,4.53
2019-04-23T10:09:06.681Z,4.28
2019-04-23T10:09:40.522Z,4.65
2019-04-23T10:10:16.422Z,4.83
2019-04-23T10:10:51.374Z,4.92
2019-04-23T10:11:26.179Z,5.47
2019-04-23T10:12:00.970Z,5.35
2019-04-23T10:12:35.821Z,6.78
2019-04-23T10:13:11.544Z,4.95
2019-04-23T10:13:46.189Z,5.33
2019-04-23T10:14:20.834Z,4.80